sensor_id;sensor_type;location;lat;lon;timestamp;pressure;altitude;pressure_sealevel;temperature;humidity
70248;BME280;57641;51.416;5.506;2023-02-16T00:00:30;102544.88;;;10.30;56.39
70248;BME280;57641;51.416;5.506;2023-02-16T00:02:57;102544.34;;;10.25;56.67
70248;BME280;57641;51.416;5.506;2023-02-16T00:07:53;102543.94;;;10.18;57.11
70248;BME280;57641;51.416;5.506;2023-02-16T00:10:25;102547.56;;;10.04;56.97
70248;BME280;57641;51.416;5.506;2023-02-16T00:12:53;102538.38;;;10.08;57.81
70248;BME280;57641;51.416;5.506;2023-02-16T00:15:39;102541.47;;;10.02;57.49
70248;BME280;57641;51.416;5.506;2023-02-16T00:18:15;102541.47;;;10.02;57.36
70248;BME280;57641;51.416;5.506;2023-02-16T00:20:41;102538.25;;;10.10;56.73
70248;BME280;57641;51.416;5.506;2023-02-16T00:23:07;102541.38;;;10.04;57.36
70248;BME280;57641;51.416;5.506;2023-02-16T00:25:36;102533.91;;;10.09;56.38
70248;BME280;57641;51.416;5.506;2023-02-16T00:28:17;102541.13;;;10.07;56.64
70248;BME280;57641;51.416;5.506;2023-02-16T00:30:44;102536.34;;;9.99;56.72
70248;BME280;57641;51.416;5.506;2023-02-16T00:33:19;102532.00;;;9.98;57.53
70248;BME280;57641;51.416;5.506;2023-02-16T00:35:45;102529.56;;;9.83;57.20
70248;BME280;57641;51.416;5.506;2023-02-16T00:38:11;102544.25;;;9.88;57.20
70248;BME280;57641;51.416;5.506;2023-02-16T00:40:37;102532.31;;;9.81;57.31
70248;BME280;57641;51.416;5.506;2023-02-16T00:43:03;102542.75;;;9.84;57.89
70248;BME280;57641;51.416;5.506;2023-02-16T00:45:31;102542.75;;;9.84;57.47
70248;BME280;57641;51.416;5.506;2023-02-16T00:48:02;102537.94;;;9.89;57.68
70248;BME280;57641;51.416;5.506;2023-02-16T00:50:33;102538.81;;;9.90;56.95
70248;BME280;57641;51.416;5.506;2023-02-16T00:53:00;102544.97;;;9.90;57.84
70248;BME280;57641;51.416;5.506;2023-02-16T00:55:32;102540.22;;;9.83;57.12
70248;BME280;57641;51.416;5.506;2023-02-16T00:58:10;102540.22;;;9.83;57.38
70248;BME280;57641;51.416;5.506;2023-02-16T01:00:50;102546.78;;;9.90;57.29
70248;BME280;57641;51.416;5.506;2023-02-16T01:03:27;102547.31;;;9.95;57.18
70248;BME280;57641;51.416;5.506;2023-02-16T01:05:53;102544.56;;;9.96;57.09
70248;BME280;57641;51.416;5.506;2023-02-16T01:08:40;102545.19;;;10.00;56.70
70248;BME280;57641;51.416;5.506;2023-02-16T01:11:27;102538.06;;;9.88;56.98
70248;BME280;57641;51.416;5.506;2023-02-16T01:13:56;102537.66;;;9.94;56.60
70248;BME280;57641;51.416;5.506;2023-02-16T01:16:35;102535.72;;;9.96;57.01
70248;BME280;57641;51.416;5.506;2023-02-16T01:19:05;102528.56;;;9.96;56.26
70248;BME280;57641;51.416;5.506;2023-02-16T01:21:31;102527.81;;;9.94;56.21
70248;BME280;57641;51.416;5.506;2023-02-16T01:23:57;102532.19;;;9.95;56.23
70248;BME280;57641;51.416;5.506;2023-02-16T01:26:23;102527.38;;;10.00;55.80
70248;BME280;57641;51.416;5.506;2023-02-16T01:28:48;102535.59;;;9.97;55.51
70248;BME280;57641;51.416;5.506;2023-02-16T01:31:15;102531.00;;;9.99;55.86
70248;BME280;57641;51.416;5.506;2023-02-16T01:33:44;102533.66;;;9.99;55.93
70248;BME280;57641;51.416;5.506;2023-02-16T01:36:28;102525.91;;;9.96;55.73
70248;BME280;57641;51.416;5.506;2023-02-16T01:38:59;102518.25;;;9.92;55.53
70248;BME280;57641;51.416;5.506;2023-02-16T01:41:43;102517.19;;;9.82;56.02
70248;BME280;57641;51.416;5.506;2023-02-16T01:45:16;102514.28;;;9.85;55.67
70248;BME280;57641;51.416;5.506;2023-02-16T01:49:37;102505.34;;;9.86;55.83
70248;BME280;57641;51.416;5.506;2023-02-16T01:55:21;102488.63;;;9.84;55.53
70248;BME280;57641;51.416;5.506;2023-02-16T01:58:09;102480.09;;;9.79;56.41
70248;BME280;57641;51.416;5.506;2023-02-16T02:03:29;102476.59;;;9.78;56.32
70248;BME280;57641;51.416;5.506;2023-02-16T02:06:19;102472.66;;;9.71;56.05
70248;BME280;57641;51.416;5.506;2023-02-16T02:09:02;102474.38;;;9.72;56.20
70248;BME280;57641;51.416;5.506;2023-02-16T02:14:23;102477.88;;;9.60;55.57
70248;BME280;57641;51.416;5.506;2023-02-16T02:17:00;102483.44;;;9.57;56.31
70248;BME280;57641;51.416;5.506;2023-02-16T02:19:27;102477.78;;;9.61;55.86
70248;BME280;57641;51.416;5.506;2023-02-16T02:28:38;102466.59;;;9.44;55.75
70248;BME280;57641;51.416;5.506;2023-02-16T02:37:20;102466.06;;;9.39;55.77
70248;BME280;57641;51.416;5.506;2023-02-16T02:40:02;102466.06;;;9.39;55.91
70248;BME280;57641;51.416;5.506;2023-02-16T02:42:50;102461.50;;;9.41;56.14
70248;BME280;57641;51.416;5.506;2023-02-16T02:45:28;102458.84;;;9.41;55.57
70248;BME280;57641;51.416;5.506;2023-02-16T02:47:55;102455.31;;;9.40;55.51
70248;BME280;57641;51.416;5.506;2023-02-16T02:50:47;102453.06;;;9.47;55.27
70248;BME280;57641;51.416;5.506;2023-02-16T02:56:49;102444.56;;;9.29;56.10
70248;BME280;57641;51.416;5.506;2023-02-16T02:59:38;102446.91;;;9.33;56.26
70248;BME280;57641;51.416;5.506;2023-02-16T03:02:24;102431.88;;;9.32;56.65
70248;BME280;57641;51.416;5.506;2023-02-16T03:04:52;102436.69;;;9.40;56.70
70248;BME280;57641;51.416;5.506;2023-02-16T03:07:22;102424.53;;;9.49;56.06
70248;BME280;57641;51.416;5.506;2023-02-16T03:10:21;102427.81;;;9.52;55.83
70248;BME280;57641;51.416;5.506;2023-02-16T03:13:20;102418.78;;;9.55;56.48
70248;BME280;57641;51.416;5.506;2023-02-16T03:15:47;102424.97;;;9.55;56.18
70248;BME280;57641;51.416;5.506;2023-02-16T03:18:15;102429.53;;;9.53;55.93
70248;BME280;57641;51.416;5.506;2023-02-16T03:21:03;102440.09;;;9.55;56.52
70248;BME280;57641;51.416;5.506;2023-02-16T03:23:50;102435.19;;;9.49;56.73
70248;BME280;57641;51.416;5.506;2023-02-16T03:26:36;102431.91;;;9.45;56.16
70248;BME280;57641;51.416;5.506;2023-02-16T03:29:23;102426.13;;;9.39;56.17
70248;BME280;57641;51.416;5.506;2023-02-16T03:31:55;102424.09;;;9.42;56.26
70248;BME280;57641;51.416;5.506;2023-02-16T03:34:22;102419.22;;;9.36;56.00
70248;BME280;57641;51.416;5.506;2023-02-16T03:36:55;102417.72;;;9.45;56.22
70248;BME280;57641;51.416;5.506;2023-02-16T03:39:27;102420.28;;;9.46;56.11
70248;BME280;57641;51.416;5.506;2023-02-16T03:41:55;102431.75;;;9.47;55.88
70248;BME280;57641;51.416;5.506;2023-02-16T03:44:22;102421.56;;;9.41;56.73
70248;BME280;57641;51.416;5.506;2023-02-16T03:46:52;102423.06;;;9.45;56.84
70248;BME280;57641;51.416;5.506;2023-02-16T03:49:18;102422.28;;;9.43;55.78
70248;BME280;57641;51.416;5.506;2023-02-16T03:51:44;102419.63;;;9.43;56.73
70248;BME280;57641;51.416;5.506;2023-02-16T03:54:11;102419.72;;;9.41;55.90
70248;BME280;57641;51.416;5.506;2023-02-16T03:56:37;102419.63;;;9.43;56.59
70248;BME280;57641;51.416;5.506;2023-02-16T03:59:03;102415.25;;;9.42;57.28
70248;BME280;57641;51.416;5.506;2023-02-16T04:01:29;102410.06;;;9.40;57.14
70248;BME280;57641;51.416;5.506;2023-02-16T04:03:55;102416.78;;;9.33;57.53
70248;BME280;57641;51.416;5.506;2023-02-16T04:06:20;102419.75;;;9.28;57.76
70248;BME280;57641;51.416;5.506;2023-02-16T04:08:46;102422.75;;;9.24;57.93
70248;BME280;57641;51.416;5.506;2023-02-16T04:11:12;102426.25;;;9.24;58.59
70248;BME280;57641;51.416;5.506;2023-02-16T04:13:56;102428.38;;;9.19;58.76
70248;BME280;57641;51.416;5.506;2023-02-16T04:16:22;102427.94;;;9.25;58.49
70248;BME280;57641;51.416;5.506;2023-02-16T04:18:48;102429.53;;;9.28;58.46
70248;BME280;57641;51.416;5.506;2023-02-16T04:21:14;102434.88;;;9.28;58.33
70248;BME280;57641;51.416;5.506;2023-02-16T04:23:39;102435.72;;;9.28;58.27
70248;BME280;57641;51.416;5.506;2023-02-16T04:26:05;102436.69;;;9.27;58.52
70248;BME280;57641;51.416;5.506;2023-02-16T04:28:30;102420.38;;;9.32;58.13
70248;BME280;57641;51.416;5.506;2023-02-16T04:30:56;102413.34;;;9.31;58.64
70248;BME280;57641;51.416;5.506;2023-02-16T04:33:21;102413.88;;;9.36;58.79
70248;BME280;57641;51.416;5.506;2023-02-16T04:35:47;102426.03;;;9.27;59.03
70248;BME280;57641;51.416;5.506;2023-02-16T04:38:12;102429.25;;;9.20;58.75
70248;BME280;57641;51.416;5.506;2023-02-16T04:40:38;102428.69;;;9.27;59.07
70248;BME280;57641;51.416;5.506;2023-02-16T04:43:06;102426.25;;;9.24;59.31
70248;BME280;57641;51.416;5.506;2023-02-16T04:45:35;102421.13;;;9.21;59.10
70248;BME280;57641;51.416;5.506;2023-02-16T04:48:04;102421.53;;;9.15;59.33
70248;BME280;57641;51.416;5.506;2023-02-16T04:50:30;102428.56;;;9.16;59.77
70248;BME280;57641;51.416;5.506;2023-02-16T04:52:56;102420.72;;;9.27;59.35
70248;BME280;57641;51.416;5.506;2023-02-16T04:55:21;102426.25;;;9.24;59.12
70248;BME280;57641;51.416;5.506;2023-02-16T04:57:47;102425.84;;;9.30;59.31
70248;BME280;57641;51.416;5.506;2023-02-16T05:00:13;102427.09;;;9.38;58.70
70248;BME280;57641;51.416;5.506;2023-02-16T05:02:39;102424.00;;;9.44;59.13
70248;BME280;57641;51.416;5.506;2023-02-16T05:05:05;102422.97;;;9.46;58.71
70248;BME280;57641;51.416;5.506;2023-02-16T05:07:31;102421.44;;;9.42;59.19
70248;BME280;57641;51.416;5.506;2023-02-16T05:09:57;102422.19;;;9.44;59.06
70248;BME280;57641;51.416;5.506;2023-02-16T05:12:22;102421.88;;;9.36;59.64
70248;BME280;57641;51.416;5.506;2023-02-16T05:15:06;102424.97;;;9.43;59.55
70248;BME280;57641;51.416;5.506;2023-02-16T05:17:33;102425.50;;;9.48;59.72
70248;BME280;57641;51.416;5.506;2023-02-16T05:20:00;102417.41;;;9.62;58.94
70248;BME280;57641;51.416;5.506;2023-02-16T05:22:26;102418.03;;;9.53;58.70
70248;BME280;57641;51.416;5.506;2023-02-16T05:25:04;102419.31;;;9.60;59.41
70248;BME280;57641;51.416;5.506;2023-02-16T05:27:30;102416.22;;;9.66;59.51
70248;BME280;57641;51.416;5.506;2023-02-16T05:29:57;102411.50;;;9.69;58.98
70248;BME280;57641;51.416;5.506;2023-02-16T05:32:24;102409.41;;;9.62;58.71
70248;BME280;57641;51.416;5.506;2023-02-16T05:34:52;102405.22;;;9.70;59.04
70248;BME280;57641;51.416;5.506;2023-02-16T05:37:18;102404.72;;;9.65;58.83
70248;BME280;57641;51.416;5.506;2023-02-16T05:39:44;102424.41;;;9.63;59.54
70248;BME280;57641;51.416;5.506;2023-02-16T05:42:13;102406.69;;;9.74;59.33
70248;BME280;57641;51.416;5.506;2023-02-16T05:44:39;102404.97;;;9.86;59.33
70248;BME280;57641;51.416;5.506;2023-02-16T05:47:04;102404.88;;;9.88;58.87
70248;BME280;57641;51.416;5.506;2023-02-16T05:49:30;102404.19;;;9.97;59.15
70248;BME280;57641;51.416;5.506;2023-02-16T05:51:56;102409.63;;;9.95;58.58
70248;BME280;57641;51.416;5.506;2023-02-16T05:54:21;102413.38;;;9.93;58.21
70248;BME280;57641;51.416;5.506;2023-02-16T05:56:49;102405.50;;;9.91;58.27
70248;BME280;57641;51.416;5.506;2023-02-16T05:59:15;102421.53;;;9.66;59.22
70248;BME280;57641;51.416;5.506;2023-02-16T06:01:42;102418.63;;;9.82;59.14
70248;BME280;57641;51.416;5.506;2023-02-16T06:04:10;102424.38;;;9.88;58.83
70248;BME280;57641;51.416;5.506;2023-02-16T06:06:37;102409.63;;;9.95;58.79
70248;BME280;57641;51.416;5.506;2023-02-16T06:09:07;102393.53;;;9.97;58.80
70248;BME280;57641;51.416;5.506;2023-02-16T06:11:39;102386.06;;;10.02;58.07
70248;BME280;57641;51.416;5.506;2023-02-16T06:14:09;102385.72;;;10.06;58.62
70248;BME280;57641;51.416;5.506;2023-02-16T06:16:37;102398.00;;;10.09;58.24
70248;BME280;57641;51.416;5.506;2023-02-16T06:19:08;102408.41;;;9.88;58.33
70248;BME280;57641;51.416;5.506;2023-02-16T06:21:35;102401.78;;;9.94;58.81
70248;BME280;57641;51.416;5.506;2023-02-16T06:24:02;102395.91;;;9.89;58.87
70248;BME280;57641;51.416;5.506;2023-02-16T06:26:28;102399.94;;;9.94;58.80
70248;BME280;57641;51.416;5.506;2023-02-16T06:28:56;102392.94;;;9.93;58.88
70248;BME280;57641;51.416;5.506;2023-02-16T06:31:21;102392.66;;;10.09;59.28
70248;BME280;57641;51.416;5.506;2023-02-16T06:33:48;102392.22;;;10.15;58.40
70248;BME280;57641;51.416;5.506;2023-02-16T06:36:14;102402.13;;;10.26;57.93
70248;BME280;57641;51.416;5.506;2023-02-16T06:38:39;102400.78;;;10.31;58.23
70248;BME280;57641;51.416;5.506;2023-02-16T06:41:05;102398.81;;;10.22;58.08
70248;BME280;57641;51.416;5.506;2023-02-16T06:43:32;102407.56;;;10.24;58.05
70248;BME280;57641;51.416;5.506;2023-02-16T06:46:04;102413.53;;;10.15;58.50
70248;BME280;57641;51.416;5.506;2023-02-16T06:48:33;102416.41;;;10.12;58.21
70248;BME280;57641;51.416;5.506;2023-02-16T06:50:58;102421.72;;;10.12;58.21
70248;BME280;57641;51.416;5.506;2023-02-16T06:53:24;102427.91;;;10.12;58.80
70248;BME280;57641;51.416;5.506;2023-02-16T06:55:53;102433.25;;;10.12;58.67
70248;BME280;57641;51.416;5.506;2023-02-16T06:58:21;102426.09;;;10.13;58.53
70248;BME280;57641;51.416;5.506;2023-02-16T07:00:48;102430.06;;;10.07;59.20
70248;BME280;57641;51.416;5.506;2023-02-16T07:03:13;102449.25;;;10.12;59.17
70248;BME280;57641;51.416;5.506;2023-02-16T07:05:39;102444.88;;;10.11;58.41
70248;BME280;57641;51.416;5.506;2023-02-16T07:08:04;102436.25;;;10.08;58.60
70248;BME280;57641;51.416;5.506;2023-02-16T07:10:30;102434.31;;;10.10;58.75
70248;BME280;57641;51.416;5.506;2023-02-16T07:12:56;102419.06;;;10.25;59.28
70248;BME280;57641;51.416;5.506;2023-02-16T07:15:21;102423.81;;;10.32;58.18
70248;BME280;57641;51.416;5.506;2023-02-16T07:17:50;102445.72;;;10.25;58.42
70248;BME280;57641;51.416;5.506;2023-02-16T07:20:19;102450.19;;;10.11;59.10
70248;BME280;57641;51.416;5.506;2023-02-16T07:22:44;102448.19;;;10.15;59.17
70248;BME280;57641;51.416;5.506;2023-02-16T07:25:10;102453.22;;;10.20;58.51
70248;BME280;57641;51.416;5.506;2023-02-16T07:27:36;102447.97;;;10.18;59.03
70248;BME280;57641;51.416;5.506;2023-02-16T07:30:01;102447.88;;;10.20;59.24
70248;BME280;57641;51.416;5.506;2023-02-16T07:32:28;102436.13;;;10.22;58.92
70248;BME280;57641;51.416;5.506;2023-02-16T07:34:55;102447.53;;;10.24;59.45
70248;BME280;57641;51.416;5.506;2023-02-16T07:37:21;102454.16;;;10.19;59.66
70248;BME280;57641;51.416;5.506;2023-02-16T07:39:46;102454.75;;;10.35;59.06
70248;BME280;57641;51.416;5.506;2023-02-16T07:42:12;102453.31;;;10.42;58.68
70248;BME280;57641;51.416;5.506;2023-02-16T07:44:38;102452.50;;;10.41;58.19
70248;BME280;57641;51.416;5.506;2023-02-16T07:47:04;102449.94;;;10.40;58.64
70248;BME280;57641;51.416;5.506;2023-02-16T07:49:33;102453.09;;;10.45;58.46
70248;BME280;57641;51.416;5.506;2023-02-16T07:51:59;102445.56;;;10.39;58.81
70248;BME280;57641;51.416;5.506;2023-02-16T07:54:24;102446.31;;;10.41;58.46
70248;BME280;57641;51.416;5.506;2023-02-16T07:56:58;102444.63;;;10.27;59.27
70248;BME280;57641;51.416;5.506;2023-02-16T07:59:25;102438.06;;;10.44;58.79
70248;BME280;57641;51.416;5.506;2023-02-16T08:01:51;102442.66;;;10.42;59.29
70248;BME280;57641;51.416;5.506;2023-02-16T08:04:18;102439.47;;;10.37;58.89
70248;BME280;57641;51.416;5.506;2023-02-16T08:06:43;102437.44;;;10.40;58.87
70248;BME280;57641;51.416;5.506;2023-02-16T08:09:11;102440.13;;;10.40;59.55
70248;BME280;57641;51.416;5.506;2023-02-16T08:11:42;102448.03;;;10.53;58.62
70248;BME280;57641;51.416;5.506;2023-02-16T08:14:08;102451.06;;;10.48;59.10
70248;BME280;57641;51.416;5.506;2023-02-16T08:16:34;102454.19;;;10.66;58.76
70248;BME280;57641;51.416;5.506;2023-02-16T08:19:04;102447.81;;;10.56;58.88
70248;BME280;57641;51.416;5.506;2023-02-16T08:21:32;102448.94;;;10.65;58.21
70248;BME280;57641;51.416;5.506;2023-02-16T08:24:04;102444.13;;;10.70;58.50
70248;BME280;57641;51.416;5.506;2023-02-16T08:26:39;102458.19;;;10.72;58.40
70248;BME280;57641;51.416;5.506;2023-02-16T08:29:10;102450.31;;;10.70;58.06
70248;BME280;57641;51.416;5.506;2023-02-16T08:31:37;102459.81;;;10.85;57.85
70248;BME280;57641;51.416;5.506;2023-02-16T08:34:05;102449.75;;;10.78;57.96
70248;BME280;57641;51.416;5.506;2023-02-16T08:36:34;102458.25;;;10.83;58.82
70248;BME280;57641;51.416;5.506;2023-02-16T08:39:07;102460.09;;;10.93;58.05
70248;BME280;57641;51.416;5.506;2023-02-16T08:41:35;102460.47;;;11.00;57.54
70248;BME280;57641;51.416;5.506;2023-02-16T08:44:03;102461.28;;;10.89;58.52
70248;BME280;57641;51.416;5.506;2023-02-16T08:46:30;102474.31;;;10.94;57.88
70248;BME280;57641;51.416;5.506;2023-02-16T08:49:01;102458.44;;;11.04;58.26
70248;BME280;57641;51.416;5.506;2023-02-16T08:51:30;102461.13;;;11.15;57.03
70248;BME280;57641;51.416;5.506;2023-02-16T08:53:57;102471.78;;;11.04;58.06
70248;BME280;57641;51.416;5.506;2023-02-16T08:56:28;102470.06;;;11.02;58.54
70248;BME280;57641;51.416;5.506;2023-02-16T08:58:58;102466.47;;;11.15;57.18
70248;BME280;57641;51.416;5.506;2023-02-16T09:01:25;102470.47;;;11.09;58.20
70248;BME280;57641;51.416;5.506;2023-02-16T09:03:51;102477.25;;;11.13;57.42
70248;BME280;57641;51.416;5.506;2023-02-16T09:06:19;102472.28;;;11.09;57.67
70248;BME280;57641;51.416;5.506;2023-02-16T09:08:55;102482.25;;;11.18;57.63
70248;BME280;57641;51.416;5.506;2023-02-16T09:11:25;102492.03;;;11.06;57.66
70248;BME280;57641;51.416;5.506;2023-02-16T09:13:51;102485.16;;;11.15;57.99
70248;BME280;57641;51.416;5.506;2023-02-16T09:16:22;102484.81;;;11.19;58.26
70248;BME280;57641;51.416;5.506;2023-02-16T09:18:48;102497.16;;;11.09;58.70
70248;BME280;57641;51.416;5.506;2023-02-16T09:21:20;102499.16;;;11.29;57.63
70248;BME280;57641;51.416;5.506;2023-02-16T09:23:53;102495.53;;;11.30;57.72
70248;BME280;57641;51.416;5.506;2023-02-16T09:26:24;102498.06;;;11.32;57.70
70248;BME280;57641;51.416;5.506;2023-02-16T09:28:53;102503.28;;;11.33;57.82
70248;BME280;57641;51.416;5.506;2023-02-16T09:31:25;102499.28;;;11.39;57.63
70248;BME280;57641;51.416;5.506;2023-02-16T09:34:04;102504.63;;;11.39;57.55
70248;BME280;57641;51.416;5.506;2023-02-16T09:36:31;102496.50;;;11.40;57.35
70248;BME280;57641;51.416;5.506;2023-02-16T09:38:57;102496.63;;;11.39;57.43
70248;BME280;57641;51.416;5.506;2023-02-16T09:46:55;102493.97;;;11.50;57.22
70248;BME280;57641;51.416;5.506;2023-02-16T09:49:36;102490.47;;;11.61;58.70
70248;BME280;57641;51.416;5.506;2023-02-16T09:54:53;102493.56;;;11.78;58.53
70248;BME280;57641;51.416;5.506;2023-02-16T10:00:23;102486.72;;;11.74;59.49
70248;BME280;57641;51.416;5.506;2023-02-16T10:03:20;102491.06;;;11.53;60.06
70248;BME280;57641;51.416;5.506;2023-02-16T10:08:42;102486.56;;;11.65;61.01
70248;BME280;57641;51.416;5.506;2023-02-16T10:14:15;102478.44;;;11.55;61.14
70248;BME280;57641;51.416;5.506;2023-02-16T10:17:04;102494.69;;;11.63;60.76
70248;BME280;57641;51.416;5.506;2023-02-16T10:19:46;102484.75;;;11.54;61.41
70248;BME280;57641;51.416;5.506;2023-02-16T10:22:17;102480.03;;;11.58;61.48
70248;BME280;57641;51.416;5.506;2023-02-16T10:24:57;102482.94;;;11.66;61.49
70248;BME280;57641;51.416;5.506;2023-02-16T10:27:30;102479.88;;;11.59;60.94
70248;BME280;57641;51.416;5.506;2023-02-16T10:29:58;102486.19;;;11.58;61.19
70248;BME280;57641;51.416;5.506;2023-02-16T10:32:33;102478.06;;;11.60;60.60
70248;BME280;57641;51.416;5.506;2023-02-16T10:35:15;102473.09;;;11.66;61.24
70248;BME280;57641;51.416;5.506;2023-02-16T10:43:12;102482.38;;;11.73;61.52
70248;BME280;57641;51.416;5.506;2023-02-16T10:45:45;102482.06;;;11.54;61.92
70248;BME280;57641;51.416;5.506;2023-02-16T10:48:17;102477.03;;;11.73;61.81
70248;BME280;57641;51.416;5.506;2023-02-16T10:53:42;102494.91;;;11.84;61.19
70248;BME280;57641;51.416;5.506;2023-02-16T10:56:49;102489.06;;;11.79;61.70
70248;BME280;57641;51.416;5.506;2023-02-16T11:02:25;102498.72;;;11.69;61.32
70248;BME280;57641;51.416;5.506;2023-02-16T11:04:56;102497.78;;;11.81;61.86
70248;BME280;57641;51.416;5.506;2023-02-16T11:07:29;102497.69;;;11.82;61.03
70248;BME280;57641;51.416;5.506;2023-02-16T11:10:21;102500.09;;;11.85;61.66
70248;BME280;57641;51.416;5.506;2023-02-16T11:12:57;102500.84;;;11.88;61.10
70248;BME280;57641;51.416;5.506;2023-02-16T11:15:25;102508.50;;;11.92;61.35
70248;BME280;57641;51.416;5.506;2023-02-16T11:17:54;102509.22;;;11.94;61.17
70248;BME280;57641;51.416;5.506;2023-02-16T11:23:28;102501.81;;;11.87;61.75
70248;BME280;57641;51.416;5.506;2023-02-16T11:28:43;102485.41;;;11.91;62.60
70248;BME280;57641;51.416;5.506;2023-02-16T11:34:00;102483.34;;;11.95;62.94
70248;BME280;57641;51.416;5.506;2023-02-16T11:36:34;102483.09;;;11.98;63.79
70248;BME280;57641;51.416;5.506;2023-02-16T11:42:04;102464.59;;;12.06;63.52
70248;BME280;57641;51.416;5.506;2023-02-16T11:44:41;102462.06;;;12.04;63.94
70248;BME280;57641;51.416;5.506;2023-02-16T11:47:38;102461.22;;;12.04;63.82
70248;BME280;57641;51.416;5.506;2023-02-16T11:50:24;102451.75;;;12.00;63.59
70248;BME280;57641;51.416;5.506;2023-02-16T11:53:22;102442.91;;;11.88;64.52
70248;BME280;57641;51.416;5.506;2023-02-16T11:55:46;102442.50;;;12.04;63.22
70248;BME280;57641;51.416;5.506;2023-02-16T11:58:25;102442.63;;;12.13;64.13
70248;BME280;57641;51.416;5.506;2023-02-16T12:01:25;102438.13;;;12.03;63.68
70248;BME280;57641;51.416;5.506;2023-02-16T12:07:36;102429.38;;;12.01;64.20
70248;BME280;57641;51.416;5.506;2023-02-16T12:21:45;102426.53;;;12.24;63.80
70248;BME280;57641;51.416;5.506;2023-02-16T12:26:53;102421.00;;;12.69;63.54
70248;BME280;57641;51.416;5.506;2023-02-16T12:29:48;102420.06;;;12.91;62.76
70248;BME280;57641;51.416;5.506;2023-02-16T12:32:31;102400.56;;;12.79;61.84
70248;BME280;57641;51.416;5.506;2023-02-16T12:35:06;102394.09;;;12.82;62.28
70248;BME280;57641;51.416;5.506;2023-02-16T12:37:59;102396.97;;;12.90;61.66
70248;BME280;57641;51.416;5.506;2023-02-16T12:40:44;102393.91;;;13.15;61.83
70248;BME280;57641;51.416;5.506;2023-02-16T12:45:47;102380.22;;;13.39;60.65
70248;BME280;57641;51.416;5.506;2023-02-16T12:48:34;102385.44;;;13.40;60.11
70248;BME280;57641;51.416;5.506;2023-02-16T12:51:09;102366.16;;;13.46;60.41
70248;BME280;57641;51.416;5.506;2023-02-16T12:53:53;102360.44;;;13.30;60.89
70248;BME280;57641;51.416;5.506;2023-02-16T12:56:33;102358.41;;;13.02;60.99
70248;BME280;57641;51.416;5.506;2023-02-16T13:01:41;102359.59;;;13.09;62.15
70248;BME280;57641;51.416;5.506;2023-02-16T13:04:16;102359.59;;;13.30;61.13
70248;BME280;57641;51.416;5.506;2023-02-16T13:06:47;102357.41;;;13.14;61.97
70248;BME280;57641;51.416;5.506;2023-02-16T13:09:34;102352.63;;;13.18;61.58
70248;BME280;57641;51.416;5.506;2023-02-16T13:12:11;102352.63;;;13.48;62.00
70248;BME280;57641;51.416;5.506;2023-02-16T13:14:42;102349.00;;;13.59;61.58
70248;BME280;57641;51.416;5.506;2023-02-16T13:17:18;102351.31;;;13.92;60.60
70248;BME280;57641;51.416;5.506;2023-02-16T13:19:46;102335.53;;;14.08;60.40
70248;BME280;57641;51.416;5.506;2023-02-16T13:22:54;102328.75;;;14.14;59.99
70248;BME280;57641;51.416;5.506;2023-02-16T13:28:50;102325.81;;;14.26;60.11
70248;BME280;57641;51.416;5.506;2023-02-16T13:39:45;102301.13;;;14.42;59.66
70248;BME280;57641;51.416;5.506;2023-02-16T13:42:38;102305.09;;;14.38;59.22
70248;BME280;57641;51.416;5.506;2023-02-16T13:47:51;102286.13;;;14.30;59.00
70248;BME280;57641;51.416;5.506;2023-02-16T13:52:53;102290.50;;;14.50;59.32
70248;BME280;57641;51.416;5.506;2023-02-16T13:55:32;102281.19;;;14.45;59.89
70248;BME280;57641;51.416;5.506;2023-02-16T14:00:46;102272.75;;;14.86;58.86
70248;BME280;57641;51.416;5.506;2023-02-16T14:05:50;102264.03;;;14.84;58.58
70248;BME280;57641;51.416;5.506;2023-02-16T14:08:26;102270.34;;;14.93;58.25
70248;BME280;57641;51.416;5.506;2023-02-16T14:11:03;102260.56;;;15.01;58.50
70248;BME280;57641;51.416;5.506;2023-02-16T14:16:31;102256.66;;;14.86;58.50
70248;BME280;57641;51.416;5.506;2023-02-16T14:19:00;102253.84;;;14.78;59.09
70248;BME280;57641;51.416;5.506;2023-02-16T14:21:30;102251.53;;;14.93;58.31
70248;BME280;57641;51.416;5.506;2023-02-16T14:24:01;102247.53;;;14.69;58.86
70248;BME280;57641;51.416;5.506;2023-02-16T14:26:29;102260.34;;;14.75;58.73
70248;BME280;57641;51.416;5.506;2023-02-16T14:32:03;102247.22;;;14.72;58.84
70248;BME280;57641;51.416;5.506;2023-02-16T14:34:37;102248.34;;;14.79;58.46
70248;BME280;57641;51.416;5.506;2023-02-16T14:39:43;102233.63;;;14.84;58.05
70248;BME280;57641;51.416;5.506;2023-02-16T14:42:16;102246.03;;;14.94;58.16
70248;BME280;57641;51.416;5.506;2023-02-16T14:58:02;102222.41;;;14.98;57.46
70248;BME280;57641;51.416;5.506;2023-02-16T15:03:25;102219.38;;;15.10;57.38
70248;BME280;57641;51.416;5.506;2023-02-16T15:05:59;102213.69;;;15.13;56.67
70248;BME280;57641;51.416;5.506;2023-02-16T15:08:29;102211.84;;;15.14;57.08
70248;BME280;57641;51.416;5.506;2023-02-16T15:11:02;102213.22;;;15.28;56.68
70248;BME280;57641;51.416;5.506;2023-02-16T15:13:37;102219.47;;;15.18;56.52
70248;BME280;57641;51.416;5.506;2023-02-16T15:16:04;102210.75;;;15.34;56.54
70248;BME280;57641;51.416;5.506;2023-02-16T15:18:36;102221.75;;;15.41;55.81
70248;BME280;57641;51.416;5.506;2023-02-16T15:21:03;102224.38;;;15.23;55.95
70248;BME280;57641;51.416;5.506;2023-02-16T15:23:33;102214.25;;;15.17;56.14
70248;BME280;57641;51.416;5.506;2023-02-16T15:26:06;102216.31;;;15.23;56.60
70248;BME280;57641;51.416;5.506;2023-02-16T15:28:39;102215.13;;;15.35;56.09
70248;BME280;57641;51.416;5.506;2023-02-16T15:31:12;102216.63;;;15.20;56.09
70248;BME280;57641;51.416;5.506;2023-02-16T15:33:57;102219.25;;;15.30;55.79
70248;BME280;57641;51.416;5.506;2023-02-16T15:36:39;102221.50;;;15.34;56.20
70248;BME280;57641;51.416;5.506;2023-02-16T15:39:24;102208.75;;;15.36;56.19